Consulta, visualización y exportación
Histórico de datos
Filtra por dispositivo y rango de fechas para inspeccionar el comportamiento de los data loggers, visualizar tendencias y descargar los resultados como CSV.
Tendencias del filtro actual
Gráficas del histórico
Cargando datos para la gráfica…
Temperatura y humedad
Batería y lluvia
| ID | Dispositivo | Fecha | Hora | sysDT | Temperatura 1 | Temperatura 2 | Humedad | Batería | Nivel de lluvia |
|---|---|---|---|---|---|---|---|---|---|
| 14705 | ciricote19 | 2026-05-10 | 08:18:02 | 2026-05-10 14:18:02 | 30.8 | 30.4 | 72.0 | 4.02 | 0.0 |
| 14704 | ciricote1 | 2026-05-10 | 08:16:05 | 2026-05-10 14:16:05 | 30.3 | 30.4 | 78.0 | 4.15 | 3.0 |
| 14703 | ciricote11 | 2026-05-10 | 08:15:57 | 2026-05-10 14:15:57 | 30.5 | 30.4 | 74.0 | 4.08 | 0.0 |
| 14702 | ciricote12 | 2026-05-10 | 08:15:55 | 2026-05-10 14:15:55 | 31.0 | 30.3 | 73.0 | 4.14 | 50.0 |
| 14701 | ciricote19 | 2026-05-10 | 08:02:39 | 2026-05-10 14:02:39 | 29.3 | 29.2 | 77.0 | 4.0 | 0.0 |
| 14700 | ciricote11 | 2026-05-10 | 08:01:04 | 2026-05-10 14:01:04 | 29.3 | 29.3 | 79.0 | 4.08 | 0.0 |
| 14699 | ciricote12 | 2026-05-10 | 08:01:02 | 2026-05-10 14:01:02 | 29.6 | 29.3 | 76.5 | 4.12 | 50.0 |
| 14698 | ciricote1 | 2026-05-10 | 08:00:42 | 2026-05-10 14:00:42 | 29.4 | 29.5 | 81.5 | 4.15 | 3.0 |
| 14697 | ciricote19 | 2026-05-10 | 07:47:39 | 2026-05-10 13:47:39 | 28.8 | 28.7 | 79.0 | 4.0 | 0.0 |
| 14696 | ciricote11 | 2026-05-10 | 07:46:11 | 2026-05-10 13:46:11 | 29.1 | 28.9 | 81.5 | 4.08 | 0.0 |
| 14695 | ciricote12 | 2026-05-10 | 07:46:02 | 2026-05-10 13:46:02 | 29.3 | 28.9 | 79.0 | 4.12 | 50.0 |
| 14694 | ciricote1 | 2026-05-10 | 07:45:42 | 2026-05-10 13:45:42 | 28.9 | 29.1 | 85.0 | 4.15 | 3.0 |
| 14693 | ciricote19 | 2026-05-10 | 07:32:46 | 2026-05-10 13:32:46 | 28.3 | 28.3 | 82.5 | 4.0 | 0.0 |
| 14692 | ciricote1 | 2026-05-10 | 07:30:49 | 2026-05-10 13:30:49 | 28.5 | 28.7 | 87.5 | 4.15 | 3.0 |
| 14691 | ciricote11 | 2026-05-10 | 07:30:48 | 2026-05-10 13:30:48 | 28.5 | 28.4 | 84.5 | 4.08 | 0.0 |
| 14690 | ciricote12 | 2026-05-10 | 07:30:39 | 2026-05-10 13:30:39 | 29.0 | 28.5 | 82.0 | 4.12 | 50.0 |
| 14689 | ciricote19 | 2026-05-10 | 07:17:53 | 2026-05-10 13:17:53 | 27.8 | 27.8 | 84.5 | 3.99 | 0.0 |
| 14688 | ciricote1 | 2026-05-10 | 07:15:56 | 2026-05-10 13:15:56 | 28.1 | 28.4 | 90.0 | 4.15 | 3.0 |
| 14687 | ciricote11 | 2026-05-10 | 07:15:55 | 2026-05-10 13:15:55 | 28.3 | 28.3 | 86.5 | 4.08 | 0.0 |
| 14686 | ciricote12 | 2026-05-10 | 07:15:39 | 2026-05-10 13:15:39 | 28.5 | 28.2 | 84.0 | 4.12 | 50.0 |
| 14685 | ciricote19 | 2026-05-10 | 07:03:00 | 2026-05-10 13:03:00 | 27.6 | 27.7 | 86.5 | 4.0 | 0.0 |
| 14684 | ciricote1 | 2026-05-10 | 07:01:10 | 2026-05-10 13:01:10 | 27.8 | 28.0 | 92.5 | 4.15 | 3.0 |
| 14683 | ciricote11 | 2026-05-10 | 07:01:02 | 2026-05-10 13:01:02 | 28.0 | 27.8 | 89.0 | 4.08 | 0.0 |
| 14682 | ciricote12 | 2026-05-10 | 07:00:46 | 2026-05-10 13:00:46 | 28.0 | 27.8 | 86.0 | 4.12 | 50.0 |
| 14681 | ciricote19 | 2026-05-10 | 06:47:53 | 2026-05-10 12:47:53 | 27.4 | 27.4 | 89.0 | 3.99 | 0.0 |
| 14680 | ciricote11 | 2026-05-10 | 06:46:09 | 2026-05-10 12:46:09 | 27.6 | 27.5 | 91.0 | 4.08 | 0.0 |
| 14679 | ciricote12 | 2026-05-10 | 06:45:53 | 2026-05-10 12:45:53 | 27.6 | 27.5 | 88.0 | 4.12 | 50.0 |
| 14678 | ciricote1 | 2026-05-10 | 06:45:47 | 2026-05-10 12:45:47 | 27.4 | 27.6 | 94.0 | 4.15 | 3.0 |
| 14677 | ciricote19 | 2026-05-10 | 06:32:55 | 2026-05-10 12:32:55 | 26.8 | 26.9 | 91.0 | 3.99 | 0.0 |
| 14676 | ciricote11 | 2026-05-10 | 06:31:09 | 2026-05-10 12:31:09 | 27.0 | 26.9 | 93.0 | 4.06 | 0.0 |
| 14675 | ciricote1 | 2026-05-10 | 06:30:54 | 2026-05-10 12:30:54 | 26.8 | 27.1 | 97.5 | 4.14 | 3.0 |
| 14674 | ciricote12 | 2026-05-10 | 06:30:53 | 2026-05-10 12:30:53 | 27.0 | 26.9 | 90.5 | 4.12 | 50.0 |
| 14673 | ciricote19 | 2026-05-10 | 06:17:55 | 2026-05-10 12:17:55 | 26.6 | 26.6 | 92.5 | 3.99 | 0.0 |
| 14672 | ciricote11 | 2026-05-10 | 06:16:09 | 2026-05-10 12:16:09 | 26.8 | 26.7 | 95.0 | 4.06 | 0.0 |
| 14671 | ciricote1 | 2026-05-10 | 06:16:01 | 2026-05-10 12:16:01 | 26.6 | 26.8 | 98.5 | 4.14 | 3.0 |
| 14670 | ciricote12 | 2026-05-10 | 06:15:46 | 2026-05-10 12:15:46 | 26.8 | 26.7 | 92.0 | 4.12 | 50.0 |
| 14669 | ciricote19 | 2026-05-10 | 06:03:02 | 2026-05-10 12:03:02 | 26.4 | 26.5 | 93.5 | 3.99 | 0.0 |
| 14668 | ciricote11 | 2026-05-10 | 06:01:09 | 2026-05-10 12:01:09 | 26.6 | 26.5 | 96.0 | 4.06 | 0.0 |
| 14667 | ciricote1 | 2026-05-10 | 06:01:01 | 2026-05-10 12:01:01 | 26.3 | 26.6 | 99.5 | 4.14 | 3.0 |
| 14666 | ciricote12 | 2026-05-10 | 06:00:53 | 2026-05-10 12:00:53 | 26.5 | 26.5 | 92.5 | 4.12 | 50.0 |
| 14665 | ciricote19 | 2026-05-10 | 05:48:02 | 2026-05-10 11:48:02 | 26.3 | 26.4 | 94.5 | 3.99 | 0.0 |
| 14664 | ciricote1 | 2026-05-10 | 05:46:01 | 2026-05-10 11:46:01 | 26.3 | 26.5 | 99.5 | 4.14 | 3.0 |
| 14663 | ciricote12 | 2026-05-10 | 05:45:53 | 2026-05-10 11:45:53 | 26.5 | 26.4 | 93.0 | 4.12 | 50.0 |
| 14662 | ciricote11 | 2026-05-10 | 05:45:46 | 2026-05-10 11:45:46 | 26.5 | 26.4 | 96.0 | 4.06 | 0.0 |
| 14661 | ciricote19 | 2026-05-10 | 05:33:02 | 2026-05-10 11:33:02 | 26.3 | 26.4 | 94.0 | 3.99 | 0.0 |
| 14660 | ciricote1 | 2026-05-10 | 05:31:01 | 2026-05-10 11:31:01 | 26.2 | 26.6 | 99.5 | 4.14 | 3.0 |
| 14659 | ciricote12 | 2026-05-10 | 05:30:53 | 2026-05-10 11:30:53 | 26.4 | 26.4 | 93.0 | 4.12 | 50.0 |
| 14658 | ciricote11 | 2026-05-10 | 05:30:46 | 2026-05-10 11:30:46 | 26.5 | 26.5 | 96.0 | 4.06 | 0.0 |
| 14657 | ciricote19 | 2026-05-10 | 05:17:37 | 2026-05-10 11:17:37 | 26.3 | 26.5 | 93.5 | 3.99 | 0.0 |
| 14656 | ciricote11 | 2026-05-10 | 05:16:09 | 2026-05-10 11:16:09 | 26.6 | 26.5 | 95.5 | 4.06 | 0.0 |
| 14655 | ciricote1 | 2026-05-10 | 05:16:01 | 2026-05-10 11:16:01 | 26.3 | 26.6 | 99.5 | 4.15 | 3.0 |
| 14654 | ciricote12 | 2026-05-10 | 05:15:53 | 2026-05-10 11:15:53 | 26.5 | 26.4 | 92.5 | 4.12 | 50.0 |
| 14653 | ciricote19 | 2026-05-10 | 05:03:00 | 2026-05-10 11:03:00 | 26.4 | 26.5 | 93.0 | 3.99 | 0.0 |
| 14652 | ciricote11 | 2026-05-10 | 05:01:09 | 2026-05-10 11:01:09 | 26.6 | 26.5 | 95.5 | 4.06 | 0.0 |
| 14651 | ciricote1 | 2026-05-10 | 05:01:01 | 2026-05-10 11:01:01 | 26.3 | 26.7 | 99.0 | 4.14 | 3.0 |
| 14650 | ciricote12 | 2026-05-10 | 05:00:53 | 2026-05-10 11:00:53 | 26.5 | 26.5 | 92.5 | 4.12 | 50.0 |
| 14649 | ciricote19 | 2026-05-10 | 04:48:00 | 2026-05-10 10:48:00 | 26.5 | 26.6 | 92.5 | 3.99 | 0.0 |
| 14648 | ciricote11 | 2026-05-10 | 04:46:09 | 2026-05-10 10:46:09 | 26.7 | 26.6 | 95.0 | 4.06 | 0.0 |
| 14647 | ciricote1 | 2026-05-10 | 04:46:01 | 2026-05-10 10:46:01 | 26.5 | 26.8 | 98.5 | 4.14 | 3.0 |
| 14646 | ciricote12 | 2026-05-10 | 04:45:46 | 2026-05-10 10:45:46 | 26.6 | 26.6 | 91.5 | 4.12 | 50.0 |
| 14645 | ciricote19 | 2026-05-10 | 04:33:02 | 2026-05-10 10:33:02 | 26.6 | 26.7 | 92.5 | 3.99 | 0.0 |
| 14644 | ciricote11 | 2026-05-10 | 04:31:09 | 2026-05-10 10:31:09 | 26.8 | 26.7 | 94.5 | 4.06 | 0.0 |
| 14643 | ciricote1 | 2026-05-10 | 04:31:01 | 2026-05-10 10:31:01 | 26.5 | 26.8 | 98.0 | 4.15 | 3.0 |
| 14642 | ciricote12 | 2026-05-10 | 04:30:53 | 2026-05-10 10:30:53 | 26.6 | 26.7 | 91.5 | 4.12 | 50.0 |
| 14641 | ciricote19 | 2026-05-10 | 04:17:39 | 2026-05-10 10:17:39 | 26.6 | 26.8 | 91.5 | 3.99 | 0.0 |
| 14640 | ciricote11 | 2026-05-10 | 04:16:09 | 2026-05-10 10:16:09 | 26.9 | 26.8 | 94.0 | 4.06 | 0.0 |
| 14639 | ciricote1 | 2026-05-10 | 04:15:54 | 2026-05-10 10:15:54 | 26.6 | 26.9 | 97.5 | 4.15 | 3.0 |
| 14638 | ciricote12 | 2026-05-10 | 04:15:46 | 2026-05-10 10:15:46 | 26.8 | 26.8 | 90.5 | 4.12 | 50.0 |
| 14637 | ciricote19 | 2026-05-10 | 04:02:55 | 2026-05-10 10:02:55 | 26.8 | 26.9 | 91.0 | 3.99 | 0.0 |
| 14636 | ciricote11 | 2026-05-10 | 04:01:09 | 2026-05-10 10:01:09 | 27.0 | 26.9 | 93.5 | 4.08 | 0.0 |
| 14635 | ciricote1 | 2026-05-10 | 04:00:54 | 2026-05-10 10:00:54 | 26.8 | 27.0 | 97.5 | 4.15 | 3.0 |
| 14634 | ciricote12 | 2026-05-10 | 04:00:46 | 2026-05-10 10:00:46 | 26.9 | 26.9 | 90.5 | 4.12 | 50.0 |
| 14633 | ciricote19 | 2026-05-10 | 03:47:55 | 2026-05-10 09:47:55 | 26.8 | 27.0 | 90.5 | 3.99 | 0.0 |
| 14632 | ciricote11 | 2026-05-10 | 03:46:02 | 2026-05-10 09:46:02 | 27.1 | 27.0 | 93.0 | 4.08 | 0.0 |
| 14631 | ciricote1 | 2026-05-10 | 03:45:54 | 2026-05-10 09:45:54 | 26.8 | 27.2 | 96.5 | 4.15 | 3.0 |
| 14630 | ciricote12 | 2026-05-10 | 03:45:46 | 2026-05-10 09:45:46 | 27.0 | 27.0 | 90.0 | 4.12 | 50.0 |
| 14629 | ciricote19 | 2026-05-10 | 03:32:53 | 2026-05-10 09:32:53 | 27.0 | 27.1 | 90.0 | 3.99 | 0.0 |
| 14628 | ciricote12 | 2026-05-10 | 03:31:02 | 2026-05-10 09:31:02 | 27.1 | 27.1 | 89.0 | 4.12 | 50.0 |
| 14627 | ciricote11 | 2026-05-10 | 03:31:02 | 2026-05-10 09:31:02 | 27.3 | 27.1 | 92.0 | 4.08 | 0.0 |
| 14626 | ciricote1 | 2026-05-10 | 03:30:54 | 2026-05-10 09:30:54 | 27.0 | 27.3 | 96.0 | 4.15 | 3.0 |
| 14625 | ciricote19 | 2026-05-10 | 03:18:02 | 2026-05-10 09:18:02 | 27.1 | 27.2 | 89.0 | 3.99 | 0.0 |
| 14624 | ciricote11 | 2026-05-10 | 03:16:02 | 2026-05-10 09:16:02 | 27.3 | 27.2 | 91.5 | 4.08 | 0.0 |
| 14623 | ciricote1 | 2026-05-10 | 03:15:54 | 2026-05-10 09:15:54 | 27.0 | 27.3 | 95.0 | 4.15 | 3.0 |
| 14622 | ciricote12 | 2026-05-10 | 03:15:46 | 2026-05-10 09:15:46 | 27.2 | 27.1 | 88.5 | 4.12 | 50.0 |
| 14621 | ciricote19 | 2026-05-10 | 03:03:02 | 2026-05-10 09:03:02 | 27.1 | 27.2 | 89.0 | 3.99 | 0.0 |
| 14620 | ciricote11 | 2026-05-10 | 03:01:02 | 2026-05-10 09:01:02 | 27.3 | 27.3 | 91.5 | 4.08 | 0.0 |
| 14619 | ciricote1 | 2026-05-10 | 03:00:47 | 2026-05-10 09:00:47 | 27.0 | 27.4 | 95.0 | 4.15 | 3.0 |
| 14618 | ciricote12 | 2026-05-10 | 03:00:46 | 2026-05-10 09:00:46 | 27.2 | 27.0 | 96.5 | 4.12 | 50.0 |
| 14617 | ciricote19 | 2026-05-10 | 02:48:00 | 2026-05-10 08:48:00 | 27.1 | 27.3 | 88.5 | 3.99 | 0.0 |
| 14616 | ciricote11 | 2026-05-10 | 02:45:55 | 2026-05-10 08:45:55 | 27.5 | 27.3 | 91.0 | 4.08 | 0.0 |
| 14615 | ciricote1 | 2026-05-10 | 02:45:47 | 2026-05-10 08:45:47 | 27.1 | 27.5 | 94.5 | 4.15 | 3.0 |
| 14614 | ciricote12 | 2026-05-10 | 02:45:39 | 2026-05-10 08:45:39 | 27.3 | 27.2 | 90.5 | 4.12 | 50.0 |
| 14613 | ciricote19 | 2026-05-10 | 02:32:53 | 2026-05-10 08:32:53 | 27.2 | 27.4 | 87.5 | 3.99 | 0.0 |
| 14612 | ciricote1 | 2026-05-10 | 02:31:10 | 2026-05-10 08:31:10 | 27.3 | 27.6 | 93.5 | 4.15 | 3.0 |
| 14611 | ciricote11 | 2026-05-10 | 02:30:55 | 2026-05-10 08:30:55 | 27.6 | 27.5 | 90.0 | 4.08 | 0.0 |
| 14610 | ciricote12 | 2026-05-10 | 02:30:39 | 2026-05-10 08:30:39 | 27.5 | 27.3 | 87.0 | 4.12 | 50.0 |
| 14609 | ciricote19 | 2026-05-10 | 02:17:53 | 2026-05-10 08:17:53 | 27.6 | 27.7 | 86.0 | 3.99 | 0.0 |
| 14608 | ciricote1 | 2026-05-10 | 02:16:10 | 2026-05-10 08:16:10 | 27.5 | 27.8 | 92.0 | 4.15 | 3.0 |
| 14607 | ciricote12 | 2026-05-10 | 02:16:02 | 2026-05-10 08:16:02 | 27.6 | 27.6 | 85.5 | 4.12 | 50.0 |
| 14606 | ciricote11 | 2026-05-10 | 02:15:55 | 2026-05-10 08:15:55 | 27.8 | 27.7 | 88.5 | 4.08 | 0.0 |
| 14605 | ciricote19 | 2026-05-10 | 02:02:46 | 2026-05-10 08:02:46 | 27.6 | 27.8 | 85.0 | 3.99 | 0.0 |
| 14604 | ciricote1 | 2026-05-10 | 02:01:10 | 2026-05-10 08:01:10 | 27.6 | 27.9 | 91.0 | 4.15 | 3.0 |
| 14603 | ciricote12 | 2026-05-10 | 02:01:02 | 2026-05-10 08:01:02 | 27.8 | 27.8 | 84.5 | 4.12 | 50.0 |
| 14602 | ciricote11 | 2026-05-10 | 02:00:48 | 2026-05-10 08:00:48 | 27.9 | 27.8 | 87.5 | 4.08 | 0.0 |
| 14601 | ciricote19 | 2026-05-10 | 01:47:46 | 2026-05-10 07:47:46 | 27.7 | 27.9 | 84.5 | 3.99 | 0.0 |
| 14600 | ciricote11 | 2026-05-10 | 01:46:11 | 2026-05-10 07:46:11 | 28.0 | 27.9 | 87.0 | 4.08 | 0.0 |
| 14599 | ciricote1 | 2026-05-10 | 01:46:03 | 2026-05-10 07:46:03 | 27.7 | 28.0 | 90.5 | 4.15 | 3.0 |
| 14598 | ciricote12 | 2026-05-10 | 01:45:39 | 2026-05-10 07:45:39 | 27.8 | 27.7 | 84.0 | 4.12 | 50.0 |
| 14597 | ciricote19 | 2026-05-10 | 01:32:46 | 2026-05-10 07:32:46 | 27.8 | 28.0 | 83.5 | 3.99 | 0.0 |
| 14596 | ciricote1 | 2026-05-10 | 01:31:03 | 2026-05-10 07:31:03 | 27.9 | 28.2 | 89.5 | 4.15 | 3.0 |
| 14595 | ciricote12 | 2026-05-10 | 01:31:02 | 2026-05-10 07:31:02 | 28.1 | 27.8 | 83.5 | 4.12 | 50.0 |
| 14594 | ciricote11 | 2026-05-10 | 01:30:48 | 2026-05-10 07:30:48 | 28.1 | 28.1 | 86.0 | 4.08 | 0.0 |
| 14593 | ciricote19 | 2026-05-10 | 01:17:39 | 2026-05-10 07:17:39 | 28.1 | 28.2 | 82.5 | 3.99 | 0.0 |
| 14592 | ciricote11 | 2026-05-10 | 01:16:11 | 2026-05-10 07:16:11 | 28.3 | 28.2 | 85.0 | 4.08 | 0.0 |
| 14591 | ciricote12 | 2026-05-10 | 01:16:02 | 2026-05-10 07:16:02 | 28.2 | 27.9 | 81.5 | 4.12 | 50.0 |
| 14590 | ciricote1 | 2026-05-10 | 01:15:56 | 2026-05-10 07:15:56 | 28.0 | 28.3 | 88.5 | 4.15 | 3.0 |
| 14589 | ciricote19 | 2026-05-10 | 01:02:39 | 2026-05-10 07:02:39 | 28.1 | 28.3 | 81.5 | 3.99 | 0.0 |
| 14588 | ciricote1 | 2026-05-10 | 01:00:56 | 2026-05-10 07:00:56 | 28.1 | 28.5 | 87.0 | 4.15 | 3.0 |
| 14587 | ciricote12 | 2026-05-10 | 01:00:55 | 2026-05-10 07:00:55 | 28.4 | 28.1 | 82.0 | 4.12 | 50.0 |
| 14586 | ciricote11 | 2026-05-10 | 01:00:48 | 2026-05-10 07:00:48 | 28.5 | 28.4 | 84.0 | 4.08 | 0.0 |
| 14585 | ciricote19 | 2026-05-10 | 00:47:39 | 2026-05-10 06:47:39 | 28.5 | 28.6 | 80.0 | 3.99 | 0.0 |
| 14584 | ciricote11 | 2026-05-10 | 00:46:11 | 2026-05-10 06:46:11 | 28.7 | 28.6 | 82.5 | 4.08 | 0.0 |
| 14583 | ciricote12 | 2026-05-10 | 00:46:02 | 2026-05-10 06:46:02 | 28.6 | 28.6 | 80.0 | 4.12 | 50.0 |
| 14582 | ciricote1 | 2026-05-10 | 00:45:49 | 2026-05-10 06:45:49 | 28.4 | 28.7 | 86.0 | 4.15 | 3.0 |
| 14581 | ciricote19 | 2026-05-10 | 00:32:48 | 2026-05-10 06:32:48 | 28.6 | 28.8 | 78.5 | 3.99 | 0.0 |
| 14580 | ciricote11 | 2026-05-10 | 00:31:11 | 2026-05-10 06:31:11 | 28.9 | 28.7 | 81.5 | 4.08 | 0.0 |
| 14579 | ciricote12 | 2026-05-10 | 00:30:55 | 2026-05-10 06:30:55 | 28.7 | 28.7 | 78.5 | 4.12 | 50.0 |
| 14578 | ciricote1 | 2026-05-10 | 00:30:42 | 2026-05-10 06:30:42 | 28.6 | 28.9 | 84.5 | 4.15 | 3.0 |
| 14577 | ciricote19 | 2026-05-10 | 00:17:48 | 2026-05-10 06:17:48 | 28.8 | 29.0 | 78.0 | 3.99 | 0.0 |
| 14576 | ciricote11 | 2026-05-10 | 00:16:04 | 2026-05-10 06:16:04 | 29.1 | 29.0 | 81.0 | 4.08 | 0.0 |
| 14575 | ciricote12 | 2026-05-10 | 00:15:55 | 2026-05-10 06:15:55 | 29.0 | 29.0 | 78.0 | 4.12 | 50.0 |
| 14574 | ciricote1 | 2026-05-10 | 00:15:42 | 2026-05-10 06:15:42 | 28.8 | 29.1 | 83.5 | 4.15 | 3.0 |
| 14573 | ciricote19 | 2026-05-10 | 00:03:02 | 2026-05-10 06:03:02 | 28.9 | 29.0 | 77.5 | 3.99 | 0.0 |
| 14572 | ciricote1 | 2026-05-10 | 00:01:05 | 2026-05-10 06:01:05 | 28.9 | 29.2 | 83.0 | 4.15 | 3.0 |
| 14571 | ciricote11 | 2026-05-10 | 00:01:04 | 2026-05-10 06:01:04 | 29.1 | 29.1 | 80.0 | 4.08 | 0.0 |
| 14570 | ciricote12 | 2026-05-10 | 00:00:55 | 2026-05-10 06:00:55 | 29.1 | 29.1 | 77.5 | 4.12 | 50.0 |
| 14569 | ciricote19 | 2026-05-09 | 23:48:02 | 2026-05-10 05:48:02 | 29.3 | 29.4 | 75.5 | 3.99 | 0.0 |
| 14568 | ciricote1 | 2026-05-09 | 23:45:58 | 2026-05-10 05:45:58 | 29.2 | 29.6 | 80.5 | 4.15 | 3.0 |
| 14567 | ciricote11 | 2026-05-09 | 23:45:57 | 2026-05-10 05:45:57 | 29.5 | 29.4 | 78.0 | 4.08 | 0.0 |
| 14566 | ciricote12 | 2026-05-09 | 23:45:55 | 2026-05-10 05:45:55 | 29.4 | 29.4 | 75.5 | 4.12 | 50.0 |
| 14565 | ciricote19 | 2026-05-09 | 23:32:48 | 2026-05-10 05:32:48 | 29.5 | 29.6 | 74.5 | 3.99 | 0.0 |
| 14564 | ciricote1 | 2026-05-09 | 23:30:58 | 2026-05-10 05:30:58 | 29.4 | 29.8 | 79.5 | 4.15 | 3.0 |
| 14563 | ciricote12 | 2026-05-09 | 23:30:55 | 2026-05-10 05:30:55 | 29.6 | 29.6 | 74.0 | 4.12 | 50.0 |
| 14562 | ciricote11 | 2026-05-09 | 23:30:50 | 2026-05-10 05:30:50 | 29.7 | 29.6 | 76.5 | 4.08 | 0.0 |
| 14561 | ciricote19 | 2026-05-09 | 23:17:48 | 2026-05-10 05:17:48 | 29.7 | 29.8 | 73.5 | 3.99 | 0.0 |
| 14560 | ciricote1 | 2026-05-09 | 23:15:51 | 2026-05-10 05:15:51 | 29.6 | 29.9 | 78.0 | 4.15 | 3.0 |
| 14559 | ciricote12 | 2026-05-09 | 23:15:48 | 2026-05-10 05:15:48 | 29.8 | 29.7 | 73.0 | 4.12 | 50.0 |
| 14558 | ciricote11 | 2026-05-09 | 23:15:43 | 2026-05-10 05:15:43 | 29.9 | 29.8 | 75.5 | 4.08 | 0.0 |
| 14557 | ciricote19 | 2026-05-09 | 23:03:02 | 2026-05-10 05:03:02 | 30.0 | 30.1 | 72.0 | 3.99 | 0.0 |
| 14556 | ciricote12 | 2026-05-09 | 23:00:48 | 2026-05-10 05:00:48 | 30.2 | 30.2 | 71.5 | 4.12 | 50.0 |
| 14555 | ciricote1 | 2026-05-09 | 23:00:44 | 2026-05-10 05:00:44 | 30.0 | 30.3 | 76.5 | 4.15 | 3.0 |
| 14554 | ciricote11 | 2026-05-09 | 23:00:43 | 2026-05-10 05:00:43 | 30.3 | 30.2 | 74.0 | 4.08 | 0.0 |
| 14553 | ciricote19 | 2026-05-09 | 22:47:55 | 2026-05-10 04:47:55 | 30.2 | 30.3 | 71.5 | 3.99 | 0.0 |
| 14552 | ciricote11 | 2026-05-09 | 22:46:06 | 2026-05-10 04:46:06 | 30.4 | 30.3 | 73.5 | 4.08 | 0.0 |
| 14551 | ciricote12 | 2026-05-09 | 22:45:48 | 2026-05-10 04:45:48 | 30.3 | 30.3 | 71.0 | 4.12 | 50.0 |
| 14550 | ciricote1 | 2026-05-09 | 22:45:44 | 2026-05-10 04:45:44 | 30.1 | 30.5 | 76.0 | 4.15 | 3.0 |
| 14549 | ciricote19 | 2026-05-09 | 22:32:55 | 2026-05-10 04:32:55 | 30.3 | 30.5 | 70.5 | 3.99 | 0.0 |
| 14548 | ciricote1 | 2026-05-09 | 22:31:07 | 2026-05-10 04:31:07 | 30.3 | 30.7 | 74.5 | 4.15 | 3.0 |
| 14547 | ciricote11 | 2026-05-09 | 22:31:06 | 2026-05-10 04:31:06 | 30.6 | 30.6 | 72.0 | 4.08 | 0.0 |
| 14546 | ciricote12 | 2026-05-09 | 22:30:48 | 2026-05-10 04:30:48 | 30.5 | 30.5 | 70.0 | 4.12 | 50.0 |
| 14545 | ciricote19 | 2026-05-09 | 22:17:55 | 2026-05-10 04:17:55 | 30.6 | 30.8 | 69.0 | 3.99 | 0.0 |
| 14544 | ciricote11 | 2026-05-09 | 22:16:06 | 2026-05-10 04:16:06 | 30.9 | 30.9 | 70.0 | 4.08 | 0.0 |
| 14543 | ciricote12 | 2026-05-09 | 22:15:48 | 2026-05-10 04:15:48 | 30.8 | 30.8 | 68.0 | 4.12 | 50.0 |
| 14542 | ciricote1 | 2026-05-09 | 22:15:44 | 2026-05-10 04:15:44 | 30.6 | 30.9 | 72.5 | 4.15 | 3.0 |
| 14541 | ciricote19 | 2026-05-09 | 22:03:02 | 2026-05-10 04:03:02 | 30.8 | 30.9 | 67.5 | 4.0 | 0.0 |
| 14540 | ciricote12 | 2026-05-09 | 22:00:55 | 2026-05-10 04:00:55 | 31.0 | 30.9 | 67.0 | 4.12 | 50.0 |
| 14539 | ciricote1 | 2026-05-09 | 22:00:44 | 2026-05-10 04:00:44 | 30.7 | 31.0 | 71.5 | 4.15 | 3.0 |
| 14538 | ciricote11 | 2026-05-09 | 22:00:43 | 2026-05-10 04:00:43 | 31.1 | 30.9 | 68.5 | 4.08 | 0.0 |
| 14537 | ciricote19 | 2026-05-09 | 21:48:02 | 2026-05-10 03:48:02 | 30.7 | 30.7 | 66.5 | 3.99 | 0.0 |
| 14536 | ciricote1 | 2026-05-09 | 21:45:58 | 2026-05-10 03:45:58 | 30.6 | 30.9 | 70.5 | 4.15 | 3.0 |
| 14535 | ciricote12 | 2026-05-09 | 21:45:48 | 2026-05-10 03:45:48 | 30.8 | 30.7 | 66.5 | 4.14 | 50.0 |
| 14534 | ciricote11 | 2026-05-09 | 21:45:43 | 2026-05-10 03:45:43 | 31.0 | 30.7 | 67.5 | 4.08 | 0.0 |
| 14533 | ciricote19 | 2026-05-09 | 21:32:48 | 2026-05-10 03:32:48 | 30.4 | 30.5 | 67.0 | 4.0 | 0.0 |
| 14532 | ciricote1 | 2026-05-09 | 21:30:58 | 2026-05-10 03:30:58 | 30.3 | 30.6 | 71.0 | 4.15 | 3.0 |
| 14531 | ciricote12 | 2026-05-09 | 21:30:55 | 2026-05-10 03:30:55 | 30.5 | 30.5 | 67.0 | 4.12 | 50.0 |
| 14530 | ciricote11 | 2026-05-09 | 21:30:50 | 2026-05-10 03:30:50 | 30.6 | 30.5 | 68.5 | 4.08 | 0.0 |
| 14529 | ciricote19 | 2026-05-09 | 21:17:48 | 2026-05-10 03:17:48 | 30.2 | 30.2 | 68.5 | 3.99 | 0.0 |
| 14528 | ciricote1 | 2026-05-09 | 21:15:58 | 2026-05-10 03:15:58 | 30.1 | 30.3 | 72.5 | 4.15 | 3.0 |
| 14527 | ciricote11 | 2026-05-09 | 21:15:50 | 2026-05-10 03:15:50 | 30.4 | 30.2 | 70.0 | 4.08 | 0.0 |
| 14526 | ciricote12 | 2026-05-09 | 21:15:48 | 2026-05-10 03:15:48 | 30.2 | 30.1 | 68.0 | 4.12 | 50.0 |
| 14525 | ciricote19 | 2026-05-09 | 21:02:48 | 2026-05-10 03:02:48 | 30.0 | 30.1 | 69.0 | 3.99 | 0.0 |
| 14524 | ciricote1 | 2026-05-09 | 21:00:58 | 2026-05-10 03:00:58 | 30.0 | 30.3 | 73.5 | 4.15 | 3.0 |
| 14523 | ciricote12 | 2026-05-09 | 21:00:48 | 2026-05-10 03:00:48 | 30.1 | 30.1 | 69.0 | 4.14 | 50.0 |
| 14522 | ciricote11 | 2026-05-09 | 21:00:43 | 2026-05-10 03:00:43 | 30.2 | 30.2 | 70.5 | 4.08 | 0.0 |
| 14521 | ciricote19 | 2026-05-09 | 20:48:02 | 2026-05-10 02:48:02 | 30.0 | 30.2 | 69.5 | 3.99 | 0.0 |
| 14520 | ciricote1 | 2026-05-09 | 20:45:58 | 2026-05-10 02:45:58 | 30.0 | 30.5 | 73.5 | 4.15 | 3.0 |
| 14519 | ciricote12 | 2026-05-09 | 20:45:48 | 2026-05-10 02:45:48 | 30.2 | 30.2 | 69.0 | 4.14 | 50.0 |
| 14518 | ciricote11 | 2026-05-09 | 20:45:43 | 2026-05-10 02:45:43 | 30.3 | 30.3 | 71.0 | 4.08 | 0.0 |
| 14517 | ciricote19 | 2026-05-09 | 20:32:55 | 2026-05-10 02:32:55 | 30.1 | 30.2 | 69.5 | 3.99 | 0.0 |
| 14516 | ciricote1 | 2026-05-09 | 20:30:58 | 2026-05-10 02:30:58 | 30.1 | 30.4 | 73.5 | 4.15 | 3.0 |
| 14515 | ciricote12 | 2026-05-09 | 20:30:48 | 2026-05-10 02:30:48 | 30.3 | 30.2 | 69.0 | 4.14 | 50.0 |
| 14514 | ciricote11 | 2026-05-09 | 20:30:43 | 2026-05-10 02:30:43 | 30.3 | 30.2 | 71.0 | 4.08 | 0.0 |
| 14513 | ciricote19 | 2026-05-09 | 20:18:02 | 2026-05-10 02:18:02 | 30.0 | 30.2 | 70.0 | 3.99 | 0.0 |
| 14512 | ciricote1 | 2026-05-09 | 20:15:58 | 2026-05-10 02:15:58 | 30.0 | 30.4 | 74.0 | 4.15 | 3.0 |
| 14511 | ciricote12 | 2026-05-09 | 20:15:48 | 2026-05-10 02:15:48 | 30.2 | 30.2 | 69.0 | 4.14 | 50.0 |
| 14510 | ciricote11 | 2026-05-09 | 20:15:43 | 2026-05-10 02:15:43 | 30.3 | 30.2 | 71.5 | 4.08 | 0.0 |
| 14509 | ciricote19 | 2026-05-09 | 20:02:48 | 2026-05-10 02:02:48 | 30.1 | 30.1 | 70.0 | 3.99 | 0.0 |
| 14508 | ciricote1 | 2026-05-09 | 20:00:58 | 2026-05-10 02:00:58 | 30.0 | 30.4 | 74.0 | 4.15 | 3.0 |
| 14507 | ciricote12 | 2026-05-09 | 20:00:48 | 2026-05-10 02:00:48 | 30.2 | 30.1 | 69.5 | 4.14 | 50.0 |
| 14506 | ciricote11 | 2026-05-09 | 20:00:43 | 2026-05-10 02:00:43 | 30.3 | 30.2 | 71.5 | 4.08 | 0.0 |
Página 1 de 74